sensor_id;sensor_type;location;lat;lon;timestamp;P1;durP1;ratioP1;P2;durP2;ratioP2
75377;SDS011;63959;51.960;5.886;2022-11-20T09:02:07;18.48;;;10.00;;
75377;SDS011;63959;51.960;5.886;2022-11-20T09:14:15;26.90;;;15.00;;
75377;SDS011;63959;51.960;5.886;2022-11-20T09:21:50;21.92;;;10.70;;
75377;SDS011;63959;51.960;5.886;2022-11-20T09:24:27;22.10;;;11.90;;
75377;SDS011;63959;51.960;5.886;2022-11-20T10:56:16;21.45;;;11.35;;
75377;SDS011;63959;51.960;5.886;2022-11-20T11:02:32;26.17;;;14.23;;
75377;SDS011;63959;51.960;5.886;2022-11-20T11:05:10;33.60;;;15.55;;
75377;SDS011;63959;51.960;5.886;2022-11-20T11:07:48;23.65;;;12.20;;
75377;SDS011;63959;51.960;5.886;2022-11-20T11:10:24;31.80;;;16.95;;
75377;SDS011;63959;51.960;5.886;2022-11-20T11:16:03;34.38;;;18.05;;
75377;SDS011;63959;51.960;5.886;2022-11-20T11:18:33;32.17;;;16.63;;
75377;SDS011;63959;51.960;5.886;2022-11-20T11:21:05;32.90;;;17.85;;
75377;SDS011;63959;51.960;5.886;2022-11-20T11:23:35;34.45;;;18.13;;
75377;SDS011;63959;51.960;5.886;2022-11-20T11:26:05;32.25;;;16.15;;
75377;SDS011;63959;51.960;5.886;2022-11-20T11:28:34;38.05;;;18.65;;
75377;SDS011;63959;51.960;5.886;2022-11-20T11:31:06;33.63;;;17.70;;
75377;SDS011;63959;51.960;5.886;2022-11-20T11:33:36;32.47;;;17.40;;
75377;SDS011;63959;51.960;5.886;2022-11-20T11:36:23;34.45;;;17.85;;
75377;SDS011;63959;51.960;5.886;2022-11-20T11:38:53;30.33;;;16.98;;
75377;SDS011;63959;51.960;5.886;2022-11-20T11:41:27;29.13;;;15.50;;
75377;SDS011;63959;51.960;5.886;2022-11-20T11:43:57;32.03;;;16.05;;
75377;SDS011;63959;51.960;5.886;2022-11-20T11:46:52;34.97;;;17.17;;
75377;SDS011;63959;51.960;5.886;2022-11-20T11:49:22;32.08;;;15.40;;
75377;SDS011;63959;51.960;5.886;2022-11-20T11:52:00;30.38;;;15.43;;
75377;SDS011;63959;51.960;5.886;2022-11-20T11:57:23;30.23;;;15.95;;
75377;SDS011;63959;51.960;5.886;2022-11-20T12:00:09;30.10;;;15.68;;
75377;SDS011;63959;51.960;5.886;2022-11-20T12:06:15;27.35;;;14.48;;
75377;SDS011;63959;51.960;5.886;2022-11-20T12:09:18;27.10;;;14.45;;
75377;SDS011;63959;51.960;5.886;2022-11-20T12:12:02;30.40;;;16.00;;
75377;SDS011;63959;51.960;5.886;2022-11-20T12:15:16;32.30;;;17.10;;
75377;SDS011;63959;51.960;5.886;2022-11-20T12:18:14;31.23;;;17.00;;
75377;SDS011;63959;51.960;5.886;2022-11-20T12:21:02;33.25;;;18.42;;
75377;SDS011;63959;51.960;5.886;2022-11-20T12:24:00;33.08;;;18.17;;
75377;SDS011;63959;51.960;5.886;2022-11-20T12:26:52;35.10;;;17.30;;
75377;SDS011;63959;51.960;5.886;2022-11-20T12:29:51;27.05;;;15.60;;
75377;SDS011;63959;51.960;5.886;2022-11-20T12:32:50;33.70;;;19.77;;
75377;SDS011;63959;51.960;5.886;2022-11-20T12:41:26;32.92;;;18.73;;
75377;SDS011;63959;51.960;5.886;2022-11-20T12:47:23;31.13;;;18.70;;
75377;SDS011;63959;51.960;5.886;2022-11-20T12:53:03;34.20;;;19.33;;
75377;SDS011;63959;51.960;5.886;2022-11-20T12:55:42;34.75;;;19.60;;
75377;SDS011;63959;51.960;5.886;2022-11-20T12:58:20;31.98;;;16.25;;
75377;SDS011;63959;51.960;5.886;2022-11-20T13:01:05;30.55;;;18.40;;
75377;SDS011;63959;51.960;5.886;2022-11-20T13:03:56;32.92;;;18.48;;
75377;SDS011;63959;51.960;5.886;2022-11-20T13:06:28;32.63;;;17.40;;
75377;SDS011;63959;51.960;5.886;2022-11-20T13:09:06;35.53;;;19.70;;
75377;SDS011;63959;51.960;5.886;2022-11-20T13:12:15;33.47;;;18.67;;
75377;SDS011;63959;51.960;5.886;2022-11-20T13:15:13;33.22;;;18.95;;
75377;SDS011;63959;51.960;5.886;2022-11-20T13:18:06;36.90;;;20.40;;
75377;SDS011;63959;51.960;5.886;2022-11-20T13:20:43;35.97;;;21.08;;
75377;SDS011;63959;51.960;5.886;2022-11-20T13:23:26;39.00;;;21.85;;
75377;SDS011;63959;51.960;5.886;2022-11-20T13:26:03;37.25;;;19.20;;
75377;SDS011;63959;51.960;5.886;2022-11-20T13:28:41;38.38;;;20.58;;
75377;SDS011;63959;51.960;5.886;2022-11-20T13:31:22;44.38;;;23.02;;
75377;SDS011;63959;51.960;5.886;2022-11-20T13:34:02;41.55;;;20.08;;
75377;SDS011;63959;51.960;5.886;2022-11-20T13:36:36;36.05;;;20.17;;
75377;SDS011;63959;51.960;5.886;2022-11-20T13:39:09;34.13;;;19.15;;
75377;SDS011;63959;51.960;5.886;2022-11-20T13:41:38;39.72;;;22.02;;
75377;SDS011;63959;51.960;5.886;2022-11-20T13:44:13;46.25;;;24.17;;
75377;SDS011;63959;51.960;5.886;2022-11-20T13:46:46;41.63;;;22.45;;
75377;SDS011;63959;51.960;5.886;2022-11-20T13:49:23;36.08;;;18.90;;
75377;SDS011;63959;51.960;5.886;2022-11-20T13:52:05;37.97;;;20.63;;
75377;SDS011;63959;51.960;5.886;2022-11-20T13:54:48;39.13;;;21.55;;
75377;SDS011;63959;51.960;5.886;2022-11-20T14:00:12;42.90;;;21.90;;
75377;SDS011;63959;51.960;5.886;2022-11-20T14:05:57;37.55;;;18.90;;
75377;SDS011;63959;51.960;5.886;2022-11-20T14:08:32;43.67;;;22.48;;
75377;SDS011;63959;51.960;5.886;2022-11-20T14:11:14;44.35;;;21.48;;
75377;SDS011;63959;51.960;5.886;2022-11-20T14:13:52;46.42;;;23.45;;
75377;SDS011;63959;51.960;5.886;2022-11-20T14:16:24;45.60;;;23.77;;
75377;SDS011;63959;51.960;5.886;2022-11-20T14:18:56;47.75;;;24.17;;
75377;SDS011;63959;51.960;5.886;2022-11-20T14:27:57;43.85;;;21.50;;
75377;SDS011;63959;51.960;5.886;2022-11-20T14:30:38;43.78;;;23.52;;
75377;SDS011;63959;51.960;5.886;2022-11-20T14:33:11;48.55;;;25.10;;
75377;SDS011;63959;51.960;5.886;2022-11-20T14:35:43;39.75;;;20.50;;
75377;SDS011;63959;51.960;5.886;2022-11-20T14:38:23;38.88;;;19.10;;
75377;SDS011;63959;51.960;5.886;2022-11-20T14:41:15;35.88;;;17.85;;
75377;SDS011;63959;51.960;5.886;2022-11-20T14:44:02;48.53;;;23.05;;
75377;SDS011;63959;51.960;5.886;2022-11-20T14:46:39;52.55;;;25.15;;
75377;SDS011;63959;51.960;5.886;2022-11-20T14:49:11;52.15;;;25.92;;
75377;SDS011;63959;51.960;5.886;2022-11-20T14:51:40;55.53;;;25.52;;
75377;SDS011;63959;51.960;5.886;2022-11-20T14:54:11;52.88;;;24.73;;
75377;SDS011;63959;51.960;5.886;2022-11-20T14:56:41;53.53;;;26.25;;
75377;SDS011;63959;51.960;5.886;2022-11-20T14:59:21;49.10;;;24.67;;
75377;SDS011;63959;51.960;5.886;2022-11-20T15:02:00;49.28;;;23.90;;
75377;SDS011;63959;51.960;5.886;2022-11-20T15:04:30;54.22;;;25.40;;
75377;SDS011;63959;51.960;5.886;2022-11-20T15:06:59;54.42;;;24.15;;
75377;SDS011;63959;51.960;5.886;2022-11-20T15:09:28;54.17;;;24.33;;
75377;SDS011;63959;51.960;5.886;2022-11-20T15:12:01;46.65;;;21.55;;
75377;SDS011;63959;51.960;5.886;2022-11-20T15:14:37;50.25;;;24.15;;
75377;SDS011;63959;51.960;5.886;2022-11-20T15:17:08;51.67;;;25.58;;
75377;SDS011;63959;51.960;5.886;2022-11-20T15:19:42;55.20;;;26.80;;
75377;SDS011;63959;51.960;5.886;2022-11-20T15:22:21;48.97;;;23.60;;
75377;SDS011;63959;51.960;5.886;2022-11-20T15:24:56;52.55;;;25.85;;
75377;SDS011;63959;51.960;5.886;2022-11-20T15:27:29;52.08;;;24.98;;
75377;SDS011;63959;51.960;5.886;2022-11-20T15:30:11;52.25;;;24.92;;
75377;SDS011;63959;51.960;5.886;2022-11-20T15:32:44;48.30;;;24.10;;
75377;SDS011;63959;51.960;5.886;2022-11-20T15:35:25;56.10;;;25.13;;
75377;SDS011;63959;51.960;5.886;2022-11-20T15:37:54;50.30;;;25.63;;
75377;SDS011;63959;51.960;5.886;2022-11-20T15:40:23;49.65;;;23.80;;
75377;SDS011;63959;51.960;5.886;2022-11-20T15:42:52;46.15;;;22.48;;
75377;SDS011;63959;51.960;5.886;2022-11-20T15:45:36;54.60;;;24.20;;
75377;SDS011;63959;51.960;5.886;2022-11-20T15:48:09;53.35;;;25.77;;
75377;SDS011;63959;51.960;5.886;2022-11-20T15:50:39;57.00;;;26.65;;
75377;SDS011;63959;51.960;5.886;2022-11-20T15:53:15;61.90;;;26.35;;
75377;SDS011;63959;51.960;5.886;2022-11-20T15:55:46;56.55;;;25.40;;
75377;SDS011;63959;51.960;5.886;2022-11-20T15:58:19;54.08;;;26.17;;
75377;SDS011;63959;51.960;5.886;2022-11-20T16:00:51;57.60;;;26.05;;
75377;SDS011;63959;51.960;5.886;2022-11-20T16:03:20;61.03;;;26.90;;
75377;SDS011;63959;51.960;5.886;2022-11-20T16:05:52;49.25;;;21.80;;
75377;SDS011;63959;51.960;5.886;2022-11-20T16:08:21;53.60;;;25.25;;
75377;SDS011;63959;51.960;5.886;2022-11-20T16:10:49;57.15;;;25.08;;
75377;SDS011;63959;51.960;5.886;2022-11-20T16:13:18;51.83;;;22.70;;
75377;SDS011;63959;51.960;5.886;2022-11-20T16:16:03;56.13;;;25.00;;
75377;SDS011;63959;51.960;5.886;2022-11-20T16:18:34;59.30;;;26.30;;
75377;SDS011;63959;51.960;5.886;2022-11-20T16:21:03;60.45;;;26.17;;
75377;SDS011;63959;51.960;5.886;2022-11-20T16:23:34;55.75;;;25.75;;
75377;SDS011;63959;51.960;5.886;2022-11-20T16:26:08;63.63;;;25.90;;
75377;SDS011;63959;51.960;5.886;2022-11-20T16:28:47;60.13;;;28.08;;
75377;SDS011;63959;51.960;5.886;2022-11-20T16:31:19;58.85;;;26.30;;
75377;SDS011;63959;51.960;5.886;2022-11-20T16:33:52;61.90;;;26.98;;
75377;SDS011;63959;51.960;5.886;2022-11-20T16:36:21;63.05;;;26.92;;
75377;SDS011;63959;51.960;5.886;2022-11-20T16:38:53;61.92;;;27.08;;
75377;SDS011;63959;51.960;5.886;2022-11-20T16:41:22;57.63;;;25.98;;
75377;SDS011;63959;51.960;5.886;2022-11-20T16:43:52;59.63;;;26.65;;
75377;SDS011;63959;51.960;5.886;2022-11-20T16:46:25;69.50;;;28.55;;
75377;SDS011;63959;51.960;5.886;2022-11-20T16:48:55;58.10;;;25.15;;
75377;SDS011;63959;51.960;5.886;2022-11-20T16:51:25;63.40;;;28.88;;
75377;SDS011;63959;51.960;5.886;2022-11-20T16:53:54;75.03;;;30.58;;
75377;SDS011;63959;51.960;5.886;2022-11-20T16:56:23;57.15;;;26.05;;
75377;SDS011;63959;51.960;5.886;2022-11-20T16:58:58;65.05;;;26.63;;
75377;SDS011;63959;51.960;5.886;2022-11-20T17:01:30;63.95;;;25.45;;
75377;SDS011;63959;51.960;5.886;2022-11-20T17:04:06;63.85;;;27.92;;
75377;SDS011;63959;51.960;5.886;2022-11-20T17:06:36;60.53;;;26.40;;
75377;SDS011;63959;51.960;5.886;2022-11-20T17:09:06;56.40;;;24.52;;
75377;SDS011;63959;51.960;5.886;2022-11-20T17:11:36;62.97;;;27.20;;
75377;SDS011;63959;51.960;5.886;2022-11-20T17:14:05;63.75;;;25.65;;
75377;SDS011;63959;51.960;5.886;2022-11-20T17:16:40;68.65;;;27.30;;
75377;SDS011;63959;51.960;5.886;2022-11-20T17:19:10;59.20;;;25.00;;
75377;SDS011;63959;51.960;5.886;2022-11-20T17:21:39;60.42;;;23.63;;
75377;SDS011;63959;51.960;5.886;2022-11-20T17:24:11;65.30;;;26.02;;
75377;SDS011;63959;51.960;5.886;2022-11-20T17:26:46;66.25;;;25.27;;
75377;SDS011;63959;51.960;5.886;2022-11-20T17:29:22;66.68;;;26.55;;
75377;SDS011;63959;51.960;5.886;2022-11-20T17:31:58;57.88;;;24.75;;
75377;SDS011;63959;51.960;5.886;2022-11-20T17:34:27;63.80;;;24.92;;
75377;SDS011;63959;51.960;5.886;2022-11-20T17:36:56;72.03;;;28.63;;
75377;SDS011;63959;51.960;5.886;2022-11-20T17:39:25;62.40;;;25.77;;
75377;SDS011;63959;51.960;5.886;2022-11-20T17:41:55;55.97;;;23.38;;
75377;SDS011;63959;51.960;5.886;2022-11-20T17:44:36;62.53;;;26.50;;
75377;SDS011;63959;51.960;5.886;2022-11-20T17:47:13;63.75;;;27.70;;
75377;SDS011;63959;51.960;5.886;2022-11-20T17:49:45;74.00;;;28.73;;
75377;SDS011;63959;51.960;5.886;2022-11-20T17:52:14;60.25;;;25.98;;
75377;SDS011;63959;51.960;5.886;2022-11-20T17:54:46;58.88;;;25.20;;
75377;SDS011;63959;51.960;5.886;2022-11-20T17:57:20;62.42;;;24.67;;
75377;SDS011;63959;51.960;5.886;2022-11-20T18:00:05;61.28;;;25.45;;
75377;SDS011;63959;51.960;5.886;2022-11-20T18:02:37;63.50;;;25.95;;
75377;SDS011;63959;51.960;5.886;2022-11-20T18:05:07;67.78;;;25.95;;
75377;SDS011;63959;51.960;5.886;2022-11-20T18:07:38;61.08;;;27.08;;
75377;SDS011;63959;51.960;5.886;2022-11-20T18:10:10;76.47;;;29.20;;
75377;SDS011;63959;51.960;5.886;2022-11-20T18:12:39;80.68;;;27.80;;
75377;SDS011;63959;51.960;5.886;2022-11-20T18:15:08;78.32;;;27.98;;
75377;SDS011;63959;51.960;5.886;2022-11-20T18:17:40;70.63;;;26.33;;
75377;SDS011;63959;51.960;5.886;2022-11-20T18:20:09;74.03;;;29.17;;
75377;SDS011;63959;51.960;5.886;2022-11-20T18:22:38;65.32;;;26.75;;
75377;SDS011;63959;51.960;5.886;2022-11-20T18:25:07;61.22;;;24.58;;
75377;SDS011;63959;51.960;5.886;2022-11-20T18:27:36;56.85;;;23.25;;
75377;SDS011;63959;51.960;5.886;2022-11-20T18:30:06;57.83;;;23.77;;
75377;SDS011;63959;51.960;5.886;2022-11-20T18:32:46;62.90;;;24.42;;
75377;SDS011;63959;51.960;5.886;2022-11-20T18:35:15;55.35;;;23.38;;
75377;SDS011;63959;51.960;5.886;2022-11-20T18:37:45;45.08;;;17.83;;
75377;SDS011;63959;51.960;5.886;2022-11-20T18:40:13;56.08;;;25.25;;
75377;SDS011;63959;51.960;5.886;2022-11-20T18:42:42;60.58;;;23.40;;
75377;SDS011;63959;51.960;5.886;2022-11-20T18:45:23;57.63;;;23.23;;
75377;SDS011;63959;51.960;5.886;2022-11-20T18:47:55;55.65;;;21.83;;
75377;SDS011;63959;51.960;5.886;2022-11-20T18:50:24;48.42;;;20.63;;
75377;SDS011;63959;51.960;5.886;2022-11-20T18:52:53;51.50;;;19.92;;
75377;SDS011;63959;51.960;5.886;2022-11-20T18:55:22;45.65;;;20.48;;
75377;SDS011;63959;51.960;5.886;2022-11-20T18:57:51;52.00;;;21.75;;
75377;SDS011;63959;51.960;5.886;2022-11-20T19:00:20;57.80;;;24.73;;
75377;SDS011;63959;51.960;5.886;2022-11-20T19:02:51;46.88;;;21.13;;
75377;SDS011;63959;51.960;5.886;2022-11-20T19:05:22;50.55;;;21.80;;
75377;SDS011;63959;51.960;5.886;2022-11-20T19:07:51;51.28;;;22.13;;
75377;SDS011;63959;51.960;5.886;2022-11-20T19:10:25;55.88;;;24.40;;
75377;SDS011;63959;51.960;5.886;2022-11-20T19:12:54;42.83;;;20.55;;
75377;SDS011;63959;51.960;5.886;2022-11-20T19:15:23;44.17;;;19.67;;
75377;SDS011;63959;51.960;5.886;2022-11-20T19:17:52;44.70;;;20.15;;
75377;SDS011;63959;51.960;5.886;2022-11-20T19:20:24;35.08;;;15.82;;
75377;SDS011;63959;51.960;5.886;2022-11-20T19:22:53;47.28;;;21.17;;
75377;SDS011;63959;51.960;5.886;2022-11-20T19:25:22;38.75;;;18.80;;
75377;SDS011;63959;51.960;5.886;2022-11-20T19:27:52;51.67;;;22.75;;
75377;SDS011;63959;51.960;5.886;2022-11-20T19:30:21;46.60;;;20.45;;
75377;SDS011;63959;51.960;5.886;2022-11-20T19:32:50;48.15;;;22.30;;
75377;SDS011;63959;51.960;5.886;2022-11-20T19:35:19;39.53;;;18.52;;
75377;SDS011;63959;51.960;5.886;2022-11-20T19:37:50;38.35;;;18.65;;
75377;SDS011;63959;51.960;5.886;2022-11-20T19:40:19;58.33;;;27.63;;
75377;SDS011;63959;51.960;5.886;2022-11-20T19:42:48;58.83;;;24.08;;
75377;SDS011;63959;51.960;5.886;2022-11-20T19:45:17;47.97;;;21.90;;
75377;SDS011;63959;51.960;5.886;2022-11-20T19:47:45;49.58;;;23.77;;
75377;SDS011;63959;51.960;5.886;2022-11-20T19:50:14;53.88;;;26.00;;
75377;SDS011;63959;51.960;5.886;2022-11-20T19:52:43;61.25;;;26.45;;
75377;SDS011;63959;51.960;5.886;2022-11-20T19:55:15;43.63;;;18.67;;
75377;SDS011;63959;51.960;5.886;2022-11-20T19:57:45;51.47;;;21.27;;
75377;SDS011;63959;51.960;5.886;2022-11-20T20:00:14;44.17;;;18.15;;
75377;SDS011;63959;51.960;5.886;2022-11-20T20:02:44;47.13;;;22.17;;
75377;SDS011;63959;51.960;5.886;2022-11-20T20:05:13;48.00;;;20.13;;
75377;SDS011;63959;51.960;5.886;2022-11-20T20:07:42;43.95;;;18.65;;
75377;SDS011;63959;51.960;5.886;2022-11-20T20:10:11;51.15;;;18.73;;
75377;SDS011;63959;51.960;5.886;2022-11-20T20:12:45;64.20;;;23.77;;
75377;SDS011;63959;51.960;5.886;2022-11-20T20:15:14;47.17;;;18.08;;
75377;SDS011;63959;51.960;5.886;2022-11-20T20:17:42;55.97;;;27.58;;
75377;SDS011;63959;51.960;5.886;2022-11-20T20:20:12;47.67;;;22.13;;
75377;SDS011;63959;51.960;5.886;2022-11-20T20:22:41;39.90;;;18.15;;
75377;SDS011;63959;51.960;5.886;2022-11-20T20:25:09;30.35;;;12.95;;
75377;SDS011;63959;51.960;5.886;2022-11-20T20:27:38;71.18;;;24.20;;
75377;SDS011;63959;51.960;5.886;2022-11-20T20:30:11;34.80;;;16.67;;
75377;SDS011;63959;51.960;5.886;2022-11-20T20:32:40;38.38;;;17.95;;
75377;SDS011;63959;51.960;5.886;2022-11-20T20:35:09;45.72;;;20.08;;
75377;SDS011;63959;51.960;5.886;2022-11-20T20:37:38;41.97;;;18.58;;
75377;SDS011;63959;51.960;5.886;2022-11-20T20:40:07;39.67;;;17.15;;
75377;SDS011;63959;51.960;5.886;2022-11-20T20:42:36;34.13;;;17.00;;
75377;SDS011;63959;51.960;5.886;2022-11-20T20:45:06;43.17;;;19.35;;
75377;SDS011;63959;51.960;5.886;2022-11-20T20:47:39;29.65;;;14.52;;
75377;SDS011;63959;51.960;5.886;2022-11-20T20:50:09;33.15;;;14.45;;
75377;SDS011;63959;51.960;5.886;2022-11-20T20:52:38;30.13;;;13.63;;
75377;SDS011;63959;51.960;5.886;2022-11-20T20:55:07;34.58;;;15.40;;
75377;SDS011;63959;51.960;5.886;2022-11-20T20:57:36;37.20;;;16.92;;
75377;SDS011;63959;51.960;5.886;2022-11-20T21:00:06;36.80;;;16.50;;
75377;SDS011;63959;51.960;5.886;2022-11-20T21:02:39;32.67;;;14.38;;
75377;SDS011;63959;51.960;5.886;2022-11-20T21:05:08;42.03;;;17.80;;
75377;SDS011;63959;51.960;5.886;2022-11-20T21:07:37;69.82;;;31.45;;
75377;SDS011;63959;51.960;5.886;2022-11-20T21:10:26;40.40;;;19.30;;
75377;SDS011;63959;51.960;5.886;2022-11-20T21:12:55;48.80;;;23.25;;
75377;SDS011;63959;51.960;5.886;2022-11-20T21:15:24;35.30;;;17.05;;
75377;SDS011;63959;51.960;5.886;2022-11-20T21:17:56;50.75;;;23.30;;
75377;SDS011;63959;51.960;5.886;2022-11-20T21:20:25;37.17;;;16.92;;
75377;SDS011;63959;51.960;5.886;2022-11-20T21:23:07;33.53;;;14.70;;
75377;SDS011;63959;51.960;5.886;2022-11-20T21:25:36;41.53;;;17.40;;
75377;SDS011;63959;51.960;5.886;2022-11-20T21:28:05;44.67;;;19.40;;
75377;SDS011;63959;51.960;5.886;2022-11-20T21:30:34;38.20;;;17.83;;
75377;SDS011;63959;51.960;5.886;2022-11-20T21:33:06;50.30;;;20.70;;
75377;SDS011;63959;51.960;5.886;2022-11-20T21:35:35;35.78;;;15.07;;
75377;SDS011;63959;51.960;5.886;2022-11-20T21:38:04;54.67;;;22.45;;
75377;SDS011;63959;51.960;5.886;2022-11-20T21:40:33;47.47;;;21.65;;
75377;SDS011;63959;51.960;5.886;2022-11-20T21:43:02;50.67;;;20.92;;
75377;SDS011;63959;51.960;5.886;2022-11-20T21:45:31;49.42;;;20.65;;
75377;SDS011;63959;51.960;5.886;2022-11-20T21:48:00;48.58;;;21.15;;
75377;SDS011;63959;51.960;5.886;2022-11-20T21:50:31;54.10;;;23.75;;
75377;SDS011;63959;51.960;5.886;2022-11-20T21:53:02;40.03;;;18.52;;
75377;SDS011;63959;51.960;5.886;2022-11-20T21:55:30;68.05;;;26.75;;
75377;SDS011;63959;51.960;5.886;2022-11-20T21:57:59;36.08;;;14.80;;
75377;SDS011;63959;51.960;5.886;2022-11-20T22:00:28;43.17;;;19.08;;
75377;SDS011;63959;51.960;5.886;2022-11-20T22:02:57;38.60;;;16.92;;
75377;SDS011;63959;51.960;5.886;2022-11-20T22:05:27;37.72;;;17.08;;
75377;SDS011;63959;51.960;5.886;2022-11-20T22:07:58;52.03;;;20.80;;
75377;SDS011;63959;51.960;5.886;2022-11-20T22:10:27;46.40;;;20.15;;
75377;SDS011;63959;51.960;5.886;2022-11-20T22:12:56;47.63;;;19.75;;
75377;SDS011;63959;51.960;5.886;2022-11-20T22:15:45;51.00;;;21.77;;
75377;SDS011;63959;51.960;5.886;2022-11-20T22:18:11;52.75;;;22.58;;
75377;SDS011;63959;51.960;5.886;2022-11-20T22:20:42;41.80;;;17.65;;
75377;SDS011;63959;51.960;5.886;2022-11-20T22:23:14;58.53;;;24.55;;
75377;SDS011;63959;51.960;5.886;2022-11-20T22:25:43;51.45;;;23.13;;
75377;SDS011;63959;51.960;5.886;2022-11-20T22:28:11;60.90;;;25.50;;
75377;SDS011;63959;51.960;5.886;2022-11-20T22:30:40;51.88;;;23.75;;
75377;SDS011;63959;51.960;5.886;2022-11-20T22:33:09;46.90;;;20.88;;
75377;SDS011;63959;51.960;5.886;2022-11-20T22:35:38;57.92;;;25.00;;
75377;SDS011;63959;51.960;5.886;2022-11-20T22:38:08;44.03;;;20.00;;
75377;SDS011;63959;51.960;5.886;2022-11-20T22:40:40;66.10;;;24.65;;
75377;SDS011;63959;51.960;5.886;2022-11-20T22:43:11;45.78;;;18.98;;
75377;SDS011;63959;51.960;5.886;2022-11-20T22:45:40;48.85;;;21.15;;
75377;SDS011;63959;51.960;5.886;2022-11-20T22:48:10;49.80;;;21.60;;
75377;SDS011;63959;51.960;5.886;2022-11-20T22:50:39;61.90;;;24.13;;
75377;SDS011;63959;51.960;5.886;2022-11-20T22:53:08;48.40;;;20.67;;
75377;SDS011;63959;51.960;5.886;2022-11-20T22:55:39;41.00;;;18.52;;
75377;SDS011;63959;51.960;5.886;2022-11-20T22:58:08;46.08;;;21.77;;
75377;SDS011;63959;51.960;5.886;2022-11-20T23:00:37;42.88;;;18.27;;
75377;SDS011;63959;51.960;5.886;2022-11-20T23:03:06;38.58;;;17.30;;
75377;SDS011;63959;51.960;5.886;2022-11-20T23:05:38;46.40;;;20.20;;
75377;SDS011;63959;51.960;5.886;2022-11-20T23:08:08;41.22;;;19.27;;
75377;SDS011;63959;51.960;5.886;2022-11-20T23:10:40;46.92;;;20.25;;
75377;SDS011;63959;51.960;5.886;2022-11-20T23:13:28;40.03;;;16.98;;
75377;SDS011;63959;51.960;5.886;2022-11-20T23:16:17;45.33;;;19.77;;
75377;SDS011;63959;51.960;5.886;2022-11-20T23:18:46;34.65;;;15.23;;
75377;SDS011;63959;51.960;5.886;2022-11-20T23:21:16;55.30;;;23.35;;
75377;SDS011;63959;51.960;5.886;2022-11-20T23:23:46;49.50;;;21.13;;
75377;SDS011;63959;51.960;5.886;2022-11-20T23:26:18;48.88;;;23.10;;
75377;SDS011;63959;51.960;5.886;2022-11-20T23:28:51;46.83;;;18.27;;
75377;SDS011;63959;51.960;5.886;2022-11-20T23:31:21;46.33;;;18.17;;
75377;SDS011;63959;51.960;5.886;2022-11-20T23:33:50;53.10;;;21.90;;
75377;SDS011;63959;51.960;5.886;2022-11-20T23:36:19;26.00;;;12.25;;
75377;SDS011;63959;51.960;5.886;2022-11-20T23:41:38;53.47;;;24.02;;
75377;SDS011;63959;51.960;5.886;2022-11-20T23:44:07;45.50;;;18.63;;
75377;SDS011;63959;51.960;5.886;2022-11-20T23:49:26;41.08;;;17.88;;
75377;SDS011;63959;51.960;5.886;2022-11-20T23:51:54;42.40;;;18.55;;
75377;SDS011;63959;51.960;5.886;2022-11-20T23:54:23;44.15;;;18.75;;
75377;SDS011;63959;51.960;5.886;2022-11-20T23:56:55;39.63;;;17.02;;
75377;SDS011;63959;51.960;5.886;2022-11-20T23:59:24;40.78;;;18.65;;
